Time;durP1;ratioP1;P1;durP2;ratioP2;P2;SDS_P1;SDS_P2;PMS_P1;PMS_P2;Temp;Humidity;BMP_temperature;BMP_pressure;BME280_temperature;BME280_humidity;BME280_pressure;Samples;Min_cycle;Max_cycle;Signal;HPM_P1;HPM_P2
2022/12/29 00:01:31;;;;;;;;;1.00;1.00;;;;;12.62;100.00;100239.19;5077686;28;46646;-81
2022/12/29 00:03:57;;;;;;;;;0.00;0.00;;;;;12.71;100.00;100243.31;5092396;28;46340;-80
2022/12/29 00:06:23;;;;;;;;;2.00;2.00;;;;;12.68;100.00;100240.22;5064143;28;45316;-81
2022/12/29 00:08:48;;;;;;;;;2.00;2.00;;;;;12.70;100.00;100222.19;5092442;28;45627;-83
2022/12/29 00:11:17;;;;;;;;;0.67;0.67;;;;;12.75;100.00;100223.22;5064281;28;45363;-82
2022/12/29 00:16:27;;;;;;;;;1.33;1.33;;;;;12.73;100.00;100217.28;5085227;28;45264;-83
2022/12/29 00:18:53;;;;;;;;;0.33;0.33;;;;;12.78;100.00;100222.00;5072584;28;45638;-82
2022/12/29 00:35:08;;;;;;;;;1.33;1.33;;;;;12.83;100.00;100195.56;5092558;28;45360;-82
2022/12/29 00:45:52;;;;;;;;;2.00;2.00;;;;;12.85;100.00;100187.34;5086822;28;45860;-80
2022/12/29 00:49:29;;;;;;;;;2.00;2.00;;;;;12.92;100.00;100188.19;5078471;28;45308;-83
2022/12/29 00:51:03;;;;;;;;;2.33;2.00;;;;;12.87;100.00;100174.66;5091925;28;45413;-82
2022/12/29 00:53:28;;;;;;;;;2.33;2.33;;;;;12.84;100.00;100169.72;5069413;28;47391;-82
2022/12/29 00:55:53;;;;;;;;;1.33;1.33;;;;;12.81;100.00;100149.59;5093987;28;45493;-80
2022/12/29 00:58:18;;;;;;;;;2.33;2.00;;;;;12.89;100.00;100169.91;5076518;28;45450;-79
2022/12/29 01:00:44;;;;;;;;;1.33;1.33;;;;;12.91;100.00;100159.88;5096455;28;45259;-79
2022/12/29 01:03:09;;;;;;;;;2.00;2.00;;;;;12.90;100.00;100152.88;5076360;28;45306;-80
2022/12/29 01:05:38;;;;;;;;;2.33;2.33;;;;;12.95;100.00;100163.78;5090116;28;45228;-81
2022/12/29 01:08:03;;;;;;;;;1.00;1.00;;;;;12.98;100.00;100171.38;5106472;27;44779;-80
2022/12/29 01:10:28;;;;;;;;;1.33;1.33;;;;;12.92;100.00;100150.84;5091157;28;45344;-82
2022/12/29 01:12:54;;;;;;;;;2.00;2.00;;;;;13.03;100.00;100156.59;5072100;28;45327;-79
2022/12/29 01:15:20;;;;;;;;;0.33;0.33;;;;;13.00;100.00;100139.16;5065323;28;46972;-80
2022/12/29 01:17:46;;;;;;;;;1.33;1.33;;;;;13.03;100.00;100146.75;5086909;28;45316;-81
2022/12/29 01:20:12;;;;;;;;;1.33;1.33;;;;;13.11;100.00;100161.75;5075651;28;45245;-81
2022/12/29 01:22:37;;;;;;;;;0.67;0.67;;;;;13.08;100.00;100170.94;5093434;28;45465;-79
2022/12/29 01:25:04;;;;;;;;;2.00;1.00;;;;;13.02;100.00;100158.41;5076678;28;45996;-80
2022/12/29 01:27:30;;;;;;;;;1.00;1.00;;;;;13.13;100.00;100157.00;5094047;28;45339;-82
2022/12/29 01:29:55;;;;;;;;;3.00;1.33;;;;;13.18;100.00;100169.72;5091481;28;45176;-81
2022/12/29 01:32:21;;;;;;;;;1.00;1.00;;;;;13.18;100.00;100175.88;5075803;28;47504;-82
2022/12/29 01:34:46;;;;;;;;;1.00;1.00;;;;;13.13;100.00;100159.66;5077937;28;45346;-82
2022/12/29 01:37:11;;;;;;;;;0.67;0.33;;;;;13.13;100.00;100171.16;5089627;28;45531;-82
2022/12/29 01:39:37;;;;;;;;;1.33;0.67;;;;;13.12;100.00;100169.53;5095286;28;45307;-82
2022/12/29 01:42:02;;;;;;;;;1.00;1.00;;;;;13.02;100.00;100161.09;5095678;28;44766;-81
2022/12/29 01:44:56;;;;;;;;;1.33;1.33;;;;;13.05;100.00;100184.69;5079961;27;46958;-81
2022/12/29 01:47:41;;;;;;;;;1.67;1.67;;;;;13.03;100.00;100188.59;5085776;28;45205;-79
2022/12/29 01:50:12;;;;;;;;;3.00;3.00;;;;;12.96;100.00;100180.59;5064341;28;45280;-79
2022/12/29 01:52:44;;;;;;;;;3.00;2.00;;;;;12.93;100.00;100197.81;5088749;28;45321;-79
2022/12/29 01:55:10;;;;;;;;;1.67;1.33;;;;;12.86;100.00;100194.31;5059701;28;47191;-78
2022/12/29 01:57:39;;;;;;;;;1.67;1.67;;;;;12.81;100.00;100223.47;5090457;28;45231;-78
2022/12/29 02:00:09;;;;;;;;;3.00;2.33;;;;;12.69;100.00;100200.03;5077070;28;45373;-79
2022/12/29 02:02:35;;;;;;;;;1.00;1.00;;;;;12.74;100.00;100210.09;5099894;28;45460;-78
2022/12/29 02:05:09;;;;;;;;;0.67;0.67;;;;;12.67;100.00;100218.09;5100984;28;45382;-78
2022/12/29 02:07:35;;;;;;;;;0.00;0.00;;;;;12.58;100.00;100200.63;5102032;28;45358;-78
2022/12/29 02:10:02;;;;;;;;;1.00;0.67;;;;;12.61;100.00;100230.34;5100715;28;45398;-77
2022/12/29 02:12:27;;;;;;;;;0.33;0.33;;;;;12.55;100.00;100209.03;5100759;28;45273;-78
2022/12/29 02:15:01;;;;;;;;;1.00;1.00;;;;;12.58;100.00;100221.94;5071647;28;47212;-78
2022/12/29 02:17:59;;;;;;;;;0.00;0.00;;;;;12.55;100.00;100214.34;5081827;28;45973;-78
2022/12/29 02:20:49;;;;;;;;;0.33;0.33;;;;;12.55;100.00;100201.84;5082030;28;45213;-78
2022/12/29 02:23:36;;;;;;;;;2.00;2.00;;;;;12.58;100.00;100212.13;5099802;28;45133;-78
2022/12/29 02:26:28;;;;;;;;;1.33;1.33;;;;;12.48;100.00;100201.81;5080233;28;46606;-79
2022/12/29 02:28:59;;;;;;;;;2.00;2.00;;;;;12.59;100.00;100220.91;5100981;28;45296;-79
2022/12/29 02:32:03;;;;;;;;;1.00;1.00;;;;;12.59;100.00;100221.75;5099385;28;45191;-79
2022/12/29 02:35:05;;;;;;;;;2.67;2.67;;;;;12.59;100.00;100203.09;5062369;28;46046;-78
2022/12/29 02:37:55;;;;;;;;;1.67;1.00;;;;;12.53;100.00;100179.06;5081166;28;46750;-78
2022/12/29 02:40:38;;;;;;;;;1.67;1.67;;;;;12.58;100.00;100190.78;5100590;28;44630;-78
2022/12/29 02:43:33;;;;;;;;;2.33;2.33;;;;;12.59;100.00;100192.44;5099769;28;45296;-78
2022/12/29 02:46:09;;;;;;;;;2.33;2.00;;;;;12.61;100.00;100192.22;5069856;28;45988;-77
2022/12/29 02:48:45;;;;;;;;;3.00;2.67;;;;;12.53;100.00;100190.56;5079759;28;45355;-78
2022/12/29 02:51:38;;;;;;;;;1.00;1.00;;;;;12.53;100.00;100181.72;5094091;28;45424;-78
2022/12/29 02:56:47;;;;;;;;;0.00;0.00;;;;;12.39;100.00;100208.34;5089205;28;45498;-76
2022/12/29 02:59:14;;;;;;;;;0.00;0.00;;;;;12.28;100.00;100212.41;5064107;28;47229;-78
2022/12/29 03:02:30;;;;;;;;;0.00;0.00;;;;;12.17;100.00;100223.63;5089525;28;45294;-76
2022/12/29 03:05:17;;;;;;;;;0.00;0.00;;;;;11.95;100.00;100231.69;5050131;28;44686;-77
2022/12/29 03:08:06;;;;;;;;;0.00;0.00;;;;;11.82;100.00;100227.09;5091662;28;45573;-77
2022/12/29 03:11:04;;;;;;;;;0.00;0.00;;;;;11.72;100.00;100220.28;5077137;28;46125;-77
2022/12/29 03:16:49;;;;;;;;;0.00;0.00;;;;;11.68;100.00;100203.06;5088182;28;45284;-78
2022/12/29 03:19:24;;;;;;;;;0.00;0.00;;;;;11.69;100.00;100201.19;5087261;27;45327;-79
2022/12/29 03:24:46;;;;;;;;;0.00;0.00;;;;;11.71;100.00;100199.19;5099632;27;45267;-78
2022/12/29 03:27:19;;;;;;;;;0.00;0.00;;;;;11.70;100.00;100186.91;5109107;27;45432;-81
2022/12/29 03:29:54;;;;;;;;;0.00;0.00;;;;;11.69;100.00;100185.22;5103876;27;45268;-77
2022/12/29 03:32:28;;;;;;;;;1.00;0.00;;;;;11.69;100.00;100190.56;5104838;27;45369;-79
2022/12/29 03:34:55;;;;;;;;;0.00;0.00;;;;;11.67;100.00;100201.41;5109022;27;45425;-80
2022/12/29 03:37:25;;;;;;;;;0.00;0.00;;;;;11.64;100.00;100196.47;5092477;27;45326;-79
2022/12/29 03:39:51;;;;;;;;;0.00;0.00;;;;;11.62;100.00;100211.81;5112021;27;45637;-79
2022/12/29 03:42:23;;;;;;;;;0.00;0.00;;;;;11.64;100.00;100203.63;5113869;27;45326;-78
2022/12/29 03:44:54;;;;;;;;;1.00;0.00;;;;;11.60;100.00;100193.38;5111579;27;45266;-76
2022/12/29 03:47:19;;;;;;;;;1.00;0.00;;;;;11.60;100.00;100200.53;5085186;27;45326;-78
2022/12/29 03:49:45;;;;;;;;;0.00;0.00;;;;;11.53;100.00;100207.66;5094264;27;46336;-79
2022/12/29 03:52:10;;;;;;;;;0.00;0.00;;;;;11.53;100.00;100207.66;5085171;27;47424;-80
2022/12/29 03:54:35;;;;;;;;;0.00;0.00;;;;;11.45;100.00;100206.78;5098288;27;45776;-81
2022/12/29 03:57:00;;;;;;;;;0.00;0.00;;;;;11.42;100.00;100212.50;5117735;27;45338;-80
2022/12/29 03:59:26;;;;;;;;;0.00;0.00;;;;;11.37;100.00;100204.25;5096681;27;46039;-81
2022/12/29 04:01:51;;;;;;;;;0.00;0.00;;;;;11.40;100.00;100214.50;5117061;27;45435;-81
2022/12/29 04:04:16;;;;;;;;;0.00;0.00;;;;;11.42;100.00;100224.97;5103122;27;45349;-81
2022/12/29 04:06:42;;;;;;;;;0.00;0.00;;;;;11.41;100.00;100225.97;5117112;27;45332;-81
2022/12/29 04:09:09;;;;;;;;;0.00;0.00;;;;;11.48;100.00;100233.00;5096920;27;46163;-80
2022/12/29 04:11:34;;;;;;;;;1.00;0.00;;;;;11.46;100.00;100232.38;5106851;27;46311;-81
2022/12/29 04:14:00;;;;;;;;;0.00;0.00;;;;;11.46;100.00;100232.38;5096893;27;45491;-81
2022/12/29 04:16:25;;;;;;;;;0.00;0.00;;;;;11.53;100.00;100235.09;5114510;27;45334;-82
2022/12/29 04:18:50;;;;;;;;;1.00;1.00;;;;;11.47;100.00;100220.69;5091137;27;45908;-82
2022/12/29 04:21:16;;;;;;;;;1.00;0.00;;;;;11.57;100.00;100224.88;5107957;27;45288;-80
2022/12/29 04:23:41;;;;;;;;;0.00;0.00;;;;;11.56;100.00;100223.25;5089403;27;46021;-81
2022/12/29 04:26:08;;;;;;;;;0.00;0.00;;;;;11.54;100.00;100214.59;5111299;27;45350;-82
2022/12/29 04:28:35;;;;;;;;;0.00;0.00;;;;;11.64;100.00;100225.75;5096692;27;45354;-81
2022/12/29 04:31:00;;;;;;;;;0.00;0.00;;;;;11.64;100.00;100228.41;5109026;27;45325;-81
2022/12/29 04:33:25;;;;;;;;;0.00;0.00;;;;;11.60;100.00;100227.97;5097468;27;45391;-81
2022/12/29 04:35:54;;;;;;;;;0.00;0.00;;;;;11.69;100.00;100241.97;5114469;27;45334;-81
2022/12/29 04:38:22;;;;;;;;;0.00;0.00;;;;;11.70;100.00;100243.59;5095687;27;47203;-79
2022/12/29 04:40:48;;;;;;;;;0.00;0.00;;;;;11.62;100.00;100222.47;5095853;27;47884;-82
2022/12/29 04:43:14;;;;;;;;;1.00;0.00;;;;;11.70;100.00;100235.63;5113475;27;45271;-81
2022/12/29 04:45:46;;;;;;;;;0.00;0.00;;;;;11.78;100.00;100249.78;5115338;27;45436;-81
2022/12/29 04:48:12;;;;;;;;;1.00;0.00;;;;;11.80;100.00;100243.28;5089748;28;46004;-80
2022/12/29 04:50:38;;;;;;;;;1.00;0.00;;;;;11.76;100.00;100234.00;5103331;27;45296;-82
2022/12/29 04:53:03;;;;;;;;;0.00;0.00;;;;;11.79;100.00;100235.47;5099525;27;45379;-82
2022/12/29 04:55:29;;;;;;;;;0.00;0.00;;;;;11.81;100.00;100247.56;5111539;27;45378;-80
2022/12/29 04:57:54;;;;;;;;;1.00;0.00;;;;;11.81;100.00;100250.25;5092124;27;46259;-82
2022/12/29 05:00:20;;;;;;;;;0.00;0.00;;;;;11.83;100.00;100258.84;5098438;27;45331;-82
2022/12/29 05:02:45;;;;;;;;;0.00;0.00;;;;;11.72;100.00;100238.09;5103600;27;45334;-82
2022/12/29 05:05:11;;;;;;;;;0.00;0.00;;;;;11.73;100.00;100245.03;5105872;27;45350;-82
2022/12/29 05:07:36;;;;;;;;;0.00;0.00;;;;;11.69;100.00;100247.28;5102828;27;45416;-81
2022/12/29 05:10:02;;;;;;;;;0.00;0.00;;;;;11.68;100.00;100256.31;5104287;27;46202;-81
2022/12/29 05:12:32;;;;;;;;;0.00;0.00;;;;;11.70;100.00;100272.09;5087641;27;46232;-81
2022/12/29 05:14:57;;;;;;;;;0.00;0.00;;;;;11.66;100.00;100263.66;5105705;27;45438;-81
2022/12/29 05:17:23;;;;;;;;;1.00;1.00;;;;;11.62;100.00;100268.53;5105839;27;45200;-82
2022/12/29 05:19:48;;;;;;;;;0.00;0.00;;;;;11.53;100.00;100259.06;5095271;27;45290;-80
2022/12/29 05:22:14;;;;;;;;;0.00;0.00;;;;;11.52;100.00;100270.69;5087441;28;45353;-82
2022/12/29 05:24:40;;;;;;;;;1.00;1.00;;;;;11.47;100.00;100254.50;5089063;28;45460;-82
2022/12/29 05:27:05;;;;;;;;;0.00;0.00;;;;;11.55;100.00;100264.97;5087677;28;46486;-82
2022/12/29 05:29:30;;;;;;;;;2.33;0.33;;;;;11.59;100.00;100270.75;5067015;28;47039;-82
2022/12/29 05:31:56;;;;;;;;;0.00;0.00;;;;;11.62;100.00;100278.38;5073660;28;45635;-82
2022/12/29 05:34:21;;;;;;;;;0.00;0.00;;;;;11.56;100.00;100271.13;5086760;28;45323;-82
2022/12/29 05:36:46;;;;;;;;;0.33;0.33;;;;;11.55;100.00;100285.47;5089913;28;45367;-80
2022/12/29 05:39:12;;;;;;;;;0.00;0.00;;;;;11.54;100.00;100278.47;5066092;28;47518;-82
2022/12/29 05:41:37;;;;;;;;;0.00;0.00;;;;;11.40;100.00;100261.59;5093680;28;45344;-83
2022/12/29 05:44:03;;;;;;;;;0.67;0.67;;;;;11.50;100.00;100280.72;5096668;28;45334;-81
2022/12/29 05:46:28;;;;;;;;;1.00;0.00;;;;;11.35;100.00;100264.84;5074903;28;46110;-82
2022/12/29 05:48:54;;;;;;;;;2.00;1.00;;;;;11.38;100.00;100280.41;5066868;28;47942;-81
2022/12/29 05:51:19;;;;;;;;;3.00;0.00;;;;;11.30;100.00;100256.59;5090800;28;45215;-82
2022/12/29 05:53:44;;;;;;;;;0.00;0.00;;;;;11.34;100.00;100279.97;5082306;28;45243;-83
2022/12/29 05:56:10;;;;;;;;;2.00;1.00;;;;;11.39;100.00;100291.88;5068685;28;46544;-83
2022/12/29 05:58:35;;;;;;;;;0.00;0.00;;;;;11.30;100.00;100281.34;5050458;28;48202;-83
2022/12/29 06:01:00;;;;;;;;;1.00;1.00;;;;;11.34;100.00;100300.41;5065631;28;45263;-82
2022/12/29 06:03:26;;;;;;;;;0.67;0.67;;;;;11.22;100.00;100281.47;5076555;28;45269;-82
2022/12/29 06:05:51;;;;;;;;;0.00;0.00;;;;;11.21;100.00;100291.31;5071853;28;47526;-83
2022/12/29 06:08:16;;;;;;;;;2.33;1.00;;;;;11.22;100.00;100308.91;5080264;28;47266;-82
2022/12/29 06:10:42;;;;;;;;;2.00;0.00;;;;;11.20;100.00;100305.59;5073273;28;45233;-79
2022/12/29 06:13:07;;;;;;;;;3.33;0.00;;;;;11.14;100.00;100303.72;5082203;28;45767;-83
2022/12/29 06:15:33;;;;;;;;;0.33;0.33;;;;;11.17;100.00;100315.81;5085902;28;45349;-83
2022/12/29 06:17:59;;;;;;;;;0.00;0.00;;;;;11.15;100.00;100308.03;5093763;28;45385;-82
2022/12/29 06:20:25;;;;;;;;;0.00;0.00;;;;;11.18;100.00;100315.63;5091517;27;45457;-83
2022/12/29 06:22:50;;;;;;;;;2.33;2.33;;;;;11.10;100.00;100310.41;5093748;28;45265;-82
2022/12/29 06:25:16;;;;;;;;;2.00;1.00;;;;;11.21;100.00;100333.88;5093090;28;45307;-83
2022/12/29 06:27:42;;;;;;;;;3.33;1.33;;;;;11.13;100.00;100315.34;5077009;28;47114;-81
2022/12/29 06:30:09;;;;;;;;;0.33;0.33;;;;;11.19;100.00;100327.06;5093297;28;45414;-82
2022/12/29 06:32:34;;;;;;;;;1.00;1.00;;;;;11.17;100.00;100321.97;5090800;28;45228;-84
2022/12/29 06:35:00;;;;;;;;;2.33;1.00;;;;;11.11;100.00;100328.03;5088394;28;45236;-82
2022/12/29 06:37:25;;;;;;;;;1.67;0.00;;;;;10.98;100.00;100313.56;5089931;28;46149;-82
2022/12/29 06:39:50;;;;;;;;;1.00;0.00;;;;;11.03;100.00;100326.31;5088186;28;45264;-83
2022/12/29 06:42:16;;;;;;;;;3.33;2.00;;;;;11.03;100.00;100336.09;5088904;28;45301;-83
2022/12/29 06:44:41;;;;;;;;;0.67;0.67;;;;;10.90;100.00;100315.50;5088823;28;45239;-81
2022/12/29 06:47:06;;;;;;;;;0.67;0.67;;;;;11.02;100.00;100345.09;5083591;28;45249;-84
2022/12/29 06:49:32;;;;;;;;;2.67;2.00;;;;;10.84;100.00;100351.66;5065182;28;45919;-83
2022/12/29 06:51:59;;;;;;;;;1.00;1.00;;;;;10.92;100.00;100359.50;5075331;28;45393;-83
2022/12/29 06:54:24;;;;;;;;;2.00;2.00;;;;;10.97;100.00;100365.09;5068518;28;45362;-83
2022/12/29 06:56:50;;;;;;;;;4.67;1.67;;;;;10.93;100.00;100355.84;5065437;28;47173;-83
2022/12/29 06:59:15;;;;;;;;;0.67;0.67;;;;;10.97;100.00;100361.63;5083872;28;45430;-83
2022/12/29 07:01:40;;;;;;;;;1.00;1.00;;;;;11.02;100.00;100374.34;5062766;28;45370;-83
2022/12/29 07:04:06;;;;;;;;;7.00;3.00;;;;;10.92;100.00;100366.69;5063574;28;45932;-82
2022/12/29 07:06:31;;;;;;;;;1.00;1.00;;;;;10.97;100.00;100377.56;5051117;28;47428;-83
2022/12/29 07:08:57;;;;;;;;;3.67;1.00;;;;;10.92;100.00;100385.28;5079615;28;45485;-82
2022/12/29 07:11:23;;;;;;;;;3.00;1.00;;;;;10.98;100.00;100400.47;5081218;28;45355;-83
2022/12/29 07:13:48;;;;;;;;;3.00;3.00;;;;;10.95;100.00;100387.56;5063057;28;46086;-82
2022/12/29 07:16:13;;;;;;;;;0.67;0.67;;;;;10.98;100.00;100397.81;5078381;27;46491;-81
2022/12/29 07:18:39;;;;;;;;;3.00;1.00;;;;;10.98;100.00;100388.03;5066592;28;45342;-82
2022/12/29 07:21:04;;;;;;;;;3.67;1.00;;;;;10.97;100.00;100398.84;5100498;27;45258;-80
2022/12/29 07:23:30;;;;;;;;;1.33;1.33;;;;;10.96;100.00;100402.53;5087164;27;46234;-80
2022/12/29 07:26:03;;;;;;;;;1.67;1.67;;;;;10.97;100.00;100402.34;5105368;27;45614;-81
2022/12/29 07:28:29;;;;;;;;;3.00;2.00;;;;;10.97;100.00;100412.13;5088623;27;45326;-82
2022/12/29 07:30:54;;;;;;;;;1.00;1.00;;;;;10.85;100.00;100401.16;5099773;27;45258;-81
2022/12/29 07:33:20;;;;;;;;;1.00;1.00;;;;;10.98;100.00;100417.28;5107388;27;45327;-80
2022/12/29 07:35:45;;;;;;;;;3.67;2.67;;;;;10.99;100.00;100418.09;5107082;27;45334;-81
2022/12/29 07:38:10;;;;;;;;;3.00;3.00;;;;;10.81;100.00;100423.78;5077357;27;45278;-81
2022/12/29 07:40:36;;;;;;;;;2.33;1.67;;;;;10.77;100.00;100422.53;5110110;27;45274;-81
2022/12/29 07:43:01;;;;;;;;;1.67;1.00;;;;;10.76;100.00;100421.69;5087313;27;46096;-83
2022/12/29 07:45:26;;;;;;;;;2.00;2.00;;;;;10.98;100.00;100433.22;5110576;27;45281;-81
2022/12/29 07:47:52;;;;;;;;;0.00;0.00;;;;;11.02;100.00;100439.00;5091567;27;45259;-82
2022/12/29 07:50:17;;;;;;;;;3.33;1.00;;;;;11.03;100.00;100445.13;5102850;27;45481;-81
2022/12/29 07:52:43;;;;;;;;;2.67;2.67;;;;;11.02;100.00;100440.84;5091372;27;45218;-82
2022/12/29 07:55:09;;;;;;;;;1.00;1.00;;;;;10.99;100.00;100439.38;5105607;27;46280;-82
2022/12/29 07:57:34;;;;;;;;;3.00;0.00;;;;;11.04;100.00;100454.78;5083110;27;45386;-79
2022/12/29 07:59:59;;;;;;;;;2.33;1.00;;;;;10.95;100.00;100428.28;5101869;27;45424;-77
2022/12/29 08:02:26;;;;;;;;;0.33;0.33;;;;;10.96;100.00;100443.22;5081533;27;46025;-80
2022/12/29 08:04:51;;;;;;;;;1.67;0.33;;;;;10.95;100.00;100438.06;5101349;27;45271;-80
2022/12/29 08:07:16;;;;;;;;;1.33;1.33;;;;;10.96;100.00;100448.53;5083513;27;45335;-81
2022/12/29 08:09:42;;;;;;;;;1.00;1.00;;;;;10.98;100.00;100462.47;5081894;27;45792;-77
2022/12/29 08:12:10;;;;;;;;;2.00;1.00;;;;;10.97;100.00;100458.19;5099601;27;45260;-80
2022/12/29 08:14:36;;;;;;;;;0.00;0.00;;;;;11.05;100.00;100475.03;5079472;27;47481;-82
2022/12/29 08:17:01;;;;;;;;;0.00;0.00;;;;;10.98;100.00;100469.63;5097490;27;45586;-81
2022/12/29 08:19:27;;;;;;;;;3.67;1.67;;;;;11.05;100.00;100475.84;5061150;28;45339;-80
2022/12/29 08:21:52;;;;;;;;;0.67;0.00;;;;;11.05;100.00;100483.81;5076992;28;45275;-79
2022/12/29 08:24:18;;;;;;;;;2.33;2.00;;;;;11.02;100.00;100480.72;5066921;28;46304;-78
2022/12/29 08:26:43;;;;;;;;;4.00;2.00;;;;;10.99;100.00;100490.72;5060379;28;45210;-82
2022/12/29 08:29:08;;;;;;;;;2.00;2.00;;;;;11.01;100.00;100487.88;5082574;27;45309;-85
2022/12/29 08:31:34;;;;;;;;;6.00;3.67;;;;;11.09;100.00;100502.91;5069092;28;45476;-83
2022/12/29 08:34:00;;;;;;;;;4.00;2.33;;;;;11.06;100.00;100489.97;5056310;28;48314;-84
2022/12/29 08:36:25;;;;;;;;;1.00;1.00;;;;;11.13;100.00;100508.72;5081023;28;45351;-84
2022/12/29 08:38:50;;;;;;;;;1.67;1.67;;;;;11.09;100.00;100493.13;5080289;28;45465;-84
2022/12/29 08:41:16;;;;;;;;;1.67;1.00;;;;;11.09;100.00;100503.75;5074102;27;46520;-82
2022/12/29 08:43:41;;;;;;;;;2.67;2.00;;;;;11.13;100.00;100509.50;5076647;28;45324;-84
2022/12/29 08:46:06;;;;;;;;;2.00;1.00;;;;;11.18;100.00;100524.94;5072350;28;45311;-83
2022/12/29 08:48:32;;;;;;;;;2.33;2.33;;;;;11.16;100.00;100522.44;5061015;28;45344;-83
2022/12/29 08:50:57;;;;;;;;;3.67;3.00;;;;;11.09;100.00;100532.16;5081017;27;45289;-83
2022/12/29 08:53:22;;;;;;;;;2.00;1.00;;;;;10.92;100.00;100515.56;5087147;28;45354;-83
2022/12/29 08:55:57;;;;;;;;;1.67;1.67;;;;;11.06;100.00;100537.84;5090585;27;45503;-83
2022/12/29 08:58:23;;;;;;;;;2.00;2.00;;;;;10.88;100.00;100506.28;5076764;28;45450;-82
2022/12/29 09:00:48;;;;;;;;;0.33;0.33;;;;;11.10;100.00;100536.47;5084971;28;45510;-84
2022/12/29 09:03:14;;;;;;;;;3.00;3.00;;;;;11.06;100.00;100541.34;5069988;28;47065;-82
2022/12/29 09:05:39;;;;;;;;;4.67;2.00;;;;;11.07;100.00;100543.00;5068239;28;45423;-79
2022/12/29 09:08:04;;;;;;;;;1.00;1.00;;;;;11.14;100.00;100552.91;5082507;28;45756;-80
2022/12/29 09:10:30;;;;;;;;;3.00;0.00;;;;;11.15;100.00;100552.72;5061832;28;46366;-79
2022/12/29 09:12:56;;;;;;;;;3.00;2.33;;;;;11.19;100.00;100555.81;5081933;28;45269;-81
2022/12/29 09:15:21;;;;;;;;;2.00;2.00;;;;;11.29;100.00;100552.91;5063109;28;45506;-79
2022/12/29 09:17:46;;;;;;;;;1.00;1.00;;;;;11.36;100.00;100551.16;5081485;28;45248;-80
2022/12/29 09:20:18;;;;;;;;;1.00;1.00;;;;;11.32;100.00;100561.34;5085514;27;45259;-80
2022/12/29 09:22:44;;;;;;;;;1.33;1.00;;;;;11.37;100.00;100555.47;5078961;27;47174;-79
2022/12/29 09:25:10;;;;;;;;;5.00;1.33;;;;;11.35;100.00;100565.50;5102086;27;45635;-79
2022/12/29 09:27:36;;;;;;;;;2.00;2.00;;;;;11.38;100.00;100557.13;5083635;27;45461;-79
2022/12/29 09:30:05;;;;;;;;;1.00;1.00;;;;;11.48;100.00;100576.31;5101514;27;45449;-79
2022/12/29 09:32:30;;;;;;;;;2.67;2.67;;;;;11.46;100.00;100566.84;5083192;27;48357;-79
2022/12/29 09:34:56;;;;;;;;;2.33;2.33;;;;;11.48;100.00;100568.31;5101588;27;45302;-80
2022/12/29 09:37:21;;;;;;;;;2.00;2.00;;;;;11.56;100.00;100578.06;5102111;27;45210;-79
2022/12/29 09:39:46;;;;;;;;;1.33;1.33;;;;;11.47;100.00;100571.97;5101601;27;45295;-80
2022/12/29 09:42:16;;;;;;;;;2.67;2.67;;;;;11.56;100.00;100582.53;5101400;27;45432;-80
2022/12/29 09:44:57;;;;;;;;;6.33;3.00;;;;;11.56;100.00;100586.03;5101725;27;45363;-79
2022/12/29 09:47:24;;;;;;;;;6.00;4.00;;;;;11.35;100.00;100587.56;5101714;27;45470;-79
2022/12/29 09:49:53;;;;;;;;;2.00;2.00;;;;;11.36;100.00;100599.06;5100514;27;45532;-80
2022/12/29 09:52:25;;;;;;;;;2.00;2.00;;;;;11.38;100.00;100601.53;5101524;27;45426;-81
2022/12/29 09:54:57;;;;;;;;;4.00;3.00;;;;;11.57;100.00;100602.81;5083118;27;45345;-81
2022/12/29 09:57:45;;;;;;;;;4.00;2.67;;;;;11.58;100.00;100604.47;5087861;27;45372;-81
2022/12/29 10:00:16;;;;;;;;;2.33;2.00;;;;;11.61;100.00;100609.41;5092218;27;45193;-81
2022/12/29 10:03:10;;;;;;;;;3.67;2.67;;;;;11.59;100.00;100611.47;5087731;27;48463;-81
2022/12/29 10:05:49;;;;;;;;;2.00;2.00;;;;;11.54;100.00;100598.69;5082671;27;45371;-82
2022/12/29 10:08:39;;;;;;;;;3.00;1.00;;;;;11.61;100.00;100615.56;5068805;28;45276;-81
2022/12/29 10:11:26;;;;;;;;;4.33;3.00;;;;;11.62;100.00;100605.75;5083376;27;45462;-81
2022/12/29 10:14:10;;;;;;;;;3.00;2.00;;;;;11.62;100.00;100621.75;5096336;27;46184;-81
2022/12/29 10:17:10;;;;;;;;;1.67;1.00;;;;;11.57;100.00;100622.28;5082402;27;45307;-81
2022/12/29 10:19:44;;;;;;;;;3.00;2.00;;;;;11.58;100.00;100626.59;5100883;27;45391;-79
2022/12/29 10:22:37;;;;;;;;;5.33;4.00;;;;;11.61;100.00;100618.25;5099334;27;45544;-77
2022/12/29 10:25:22;;;;;;;;;2.33;2.33;;;;;11.60;100.00;100608.63;5079457;27;47274;-76
2022/12/29 10:27:49;;;;;;;;;2.67;2.00;;;;;11.67;100.00;100600.69;5086969;27;45329;-77
2022/12/29 10:30:15;;;;;;;;;4.00;2.33;;;;;11.77;100.00;100597.78;5089615;27;45488;-77
2022/12/29 10:32:57;;;;;;;;;4.67;1.00;;;;;11.86;100.00;100601.16;5098543;27;45915;-78
2022/12/29 10:35:32;;;;;;;;;3.00;2.00;;;;;11.91;100.00;100606.72;5097852;27;45488;-78
2022/12/29 10:38:35;;;;;;;;;5.00;2.00;;;;;11.94;100.00;100614.34;5079752;27;45421;-78
2022/12/29 10:41:19;;;;;;;;;5.00;2.00;;;;;11.98;100.00;100620.13;5098051;27;45392;-77
2022/12/29 10:43:47;;;;;;;;;4.00;2.00;;;;;11.96;100.00;100604.34;5090005;27;46068;-79
2022/12/29 10:46:20;;;;;;;;;4.00;2.33;;;;;12.00;100.00;100600.28;5079131;27;45967;-80
2022/12/29 10:48:46;;;;;;;;;2.33;2.33;;;;;12.08;100.00;100606.53;5096965;27;45348;-80
2022/12/29 10:51:21;;;;;;;;;7.00;4.33;;;;;12.08;100.00;100609.22;5097206;27;45377;-79
2022/12/29 10:54:17;;;;;;;;;3.67;3.67;;;;;12.09;100.00;100611.69;5070094;28;46781;-83
2022/12/29 10:56:50;;;;;;;;;3.67;3.00;;;;;12.09;100.00;100605.56;5070460;27;45638;-80
2022/12/29 10:59:24;;;;;;;;;3.67;3.00;;;;;12.09;100.00;100601.03;5078451;28;45512;-82
2022/12/29 11:02:04;;;;;;;;;3.67;3.00;;;;;12.15;100.00;100614.63;5090856;27;45474;-82
2022/12/29 11:05:02;;;;;;;;;2.00;2.00;;;;;12.16;100.00;100609.13;5079187;27;46196;-80
2022/12/29 11:07:30;;;;;;;;;4.67;4.00;;;;;12.19;100.00;100600.75;5076160;27;46459;-81
2022/12/29 11:10:15;;;;;;;;;3.67;3.33;;;;;12.28;100.00;100613.94;5100039;27;45451;-84
2022/12/29 11:12:40;;;;;;;;;3.33;3.00;;;;;12.27;100.00;100585.66;5082195;27;45368;-82
2022/12/29 11:15:05;;;;;;;;;3.67;3.67;;;;;12.45;100.00;100609.22;5099979;27;45475;-83
2022/12/29 11:17:43;;;;;;;;;2.33;2.33;;;;;12.43;100.00;100596.06;5082602;27;45363;-80
2022/12/29 11:20:32;;;;;;;;;4.00;2.00;;;;;12.54;100.00;100608.03;5077970;28;45505;-80
2022/12/29 11:22:59;;;;;;;;;3.33;1.00;;;;;12.49;100.00;100600.59;5080072;28;45319;-82
2022/12/29 11:25:24;;;;;;;;;3.00;3.00;;;;;12.48;100.00;100595.50;5060875;28;46886;-79
2022/12/29 11:28:01;;;;;;;;;5.00;4.00;;;;;12.59;100.00;100616.31;5062194;28;48267;-81
2022/12/29 11:30:30;;;;;;;;;3.00;2.33;;;;;12.53;100.00;100611.72;5079378;28;45476;-81
2022/12/29 11:32:58;;;;;;;;;5.00;4.33;;;;;12.55;100.00;100595.53;5079755;28;45382;-81
2022/12/29 11:35:42;;;;;;;;;8.67;6.67;;;;;12.67;100.00;100612.69;5060453;28;46310;-77
2022/12/29 11:38:20;;;;;;;;;7.33;7.00;;;;;12.72;100.00;100610.25;5081088;28;46201;-79
2022/12/29 11:40:45;;;;;;;;;9.00;5.33;;;;;12.67;100.00;100599.34;5057625;28;46081;-81
2022/12/29 11:43:29;;;;;;;;;3.33;2.33;;;;;12.81;100.00;100610.13;5063330;28;45308;-80
2022/12/29 11:45:56;;;;;;;;;4.00;4.00;;;;;12.55;100.00;100563.56;5061619;28;47283;-78
2022/12/29 11:48:22;;;;;;;;;7.00;6.00;;;;;12.74;100.00;100580.72;5077457;28;46118;-77
2022/12/29 11:50:59;;;;;;;;;5.00;3.00;;;;;12.67;100.00;100579.84;5066241;28;45444;-80
2022/12/29 11:53:47;;;;;;;;;5.33;3.00;;;;;12.73;100.00;100590.59;5063108;27;46523;-82
2022/12/29 11:56:15;;;;;;;;;7.00;5.00;;;;;12.78;100.00;100586.53;5078191;28;45435;-80
2022/12/29 11:58:42;;;;;;;;;3.33;2.00;;;;;12.68;100.00;100560.16;5078445;28;45341;-81
2022/12/29 12:01:19;;;;;;;;;7.67;6.33;;;;;12.70;100.00;100561.66;5078306;28;45362;-80
2022/12/29 12:03:57;;;;;;;;;5.00;5.00;;;;;12.84;100.00;100575.91;5078555;28;45567;-80